Pagrindinis puslapis
METAR-TAF:

METAR-TAF

Oro uostai :

Khon Kaen, Tailandas

platuma: 16-26N, ilguma: 102-50E, Aukštis: 165 m

Dabartinis oras

Ataskaita buvo paskelbta 1 valandą ir 9 minutes, ne 12:00 UTC
Vėjas 3 kt iš Rytų/Šiaurės Rytų, svyruoja nuo Šiaurės/Šiaurės Rytų ir Rytų/Pietryčių
Temperatūra 27°C
Drėgmė 62%
Slėgis 1012 hPa
Matomumas: 9000 m
Mažai debesys ne aukštis 3500 ft
Su prošvaistėmis ne aukštis 8000 ft

METAR: VTUK 151200Z 07003KT 030V110 9000 FEW035 BKN080 27/19 Q1012 NOSIG

Laikas: 20:09 (13:09 UTC)

Prognozė

Ataskaita buvo paskelbta 2 valandos ir 9 minutes, ne 11:00 UTC
Prognozė galioja nuo 15 metu 12 UTC su 16 metu 12 UTC
Vėjas 5 kt iš Šiaurės Rytų
Matomumas: 9000 m
Mažai debesys ne aukštis 3000 ft

TAF: VTUK 151100Z 1512/1612 04005KT 9000 FEW030

Orai ataskaitas ir orų prognozės (METAR, TAF).

turimą stotys yra geltonos ir raudonos taškus žemėlapyje.

Perkelti pele per norėdami pamatyti stoties vardą.

Tada spustelėkite, norėdami matyti oro stebėjimo ir prognozės.

Norėdami pakeisti žemėlapį: spustelėkite ant žalios mygtukų su juodo kryžiaus žemyn,; žalią mygtuką su brūkšneliu, jei norite nutolinti; arba žalių rodyklių gretimoms žemėlapius.


METAR-TAF: